Date,TemperatureHighF,TemperatureAvgF,TemperatureLowF,DewpointHighF,DewpointAvgF,DewpointLowF,HumidityHigh,HumidityAvg,HumidityLow,PressureMaxIn,PressureMinIn,WindSpeedMaxMPH,WindSpeedAvgMPH,GustSpeedMaxMPH,PrecipitationSumIn
2014-1-1,23.2,17.1,13.5,0.1,-7.7,-18.4,48,33,15,30.30,30.17,3,1,0,0.00
2014-1-2,16.3,12.4,5.9,1.8,-2.9,-9.5,52,49,47,30.21,29.92,7,1,0,0.00
2014-1-3,20.5,6.0,1.2,1.6,-13.4,-24.6,48,40,25,30.31,30.03,2,0,0,0.00
2014-1-4,34.5,27.6,15.4,1.0,-6.8,-17.5,41,23,10,30.12,29.83,7,2,0,0.00
2014-1-5,34.9,32.8,30.6,32.0,15.0,0.1,98,50,23,29.98,29.28,1,0,0,0.11
2014-1-6,42.3,19.9,-0.4,41.7,1.2,-29.2,98,48,19,29.78,29.06,26,6,0,0.31
2014-1-7,5.7,0.8,-6.0,-18.2,-28.4,-37.3,33,23,18,30.18,29.78,24,12,0,0.00
2014-1-8,19.6,13.9,5.4,0.1,-11.1,-21.1,43,31,22,30.35,30.18,20,6,0,0.00
2014-1-9,25.9,16.2,9.1,6.3,-2.4,-7.8,68,45,23,30.53,30.26,7,2,0,0.00
2014-1-10,41.7,33.1,19.2,41.2,27.6,9.4,98,82,53,30.26,29.72,4,1,0,0.08
2014-1-11,50.0,43.2,35.6,49.5,42.7,35.1,98,98,98,29.71,29.07,14,5,0,0.28
2014-1-12,38.5,35.2,33.3,38.0,34.7,32.8,98,98,98,29.83,29.39,18,8,0,0.00
2014-1-13,51.3,43.9,33.6,50.7,43.4,33.1,98,98,98,29.75,29.49,18,6,0,0.04
2014-1-14,44.1,37.3,29.5,43.5,36.8,29.0,98,98,98,29.68,29.49,6,3,0,0.00
2014-1-15,36.3,33.3,30.9,35.8,32.8,30.4,98,98,98,29.77,29.61,19,7,0,0.00
2014-1-18,33.1,21.1,15.4,32.6,20.6,15.0,98,98,98,29.80,29.68,13,6,0,0.00
2014-1-19,28.8,24.3,18.9,28.3,23.8,18.4,98,98,98,29.72,29.33,26,9,0,0.00
2014-1-20,30.7,22.6,13.5,30.2,22.1,13.0,98,98,98,29.94,29.37,14,4,0,0.00
2014-1-21,14.5,7.5,5.9,14.1,7.1,5.5,98,98,98,30.06,29.93,9,4,0,0.00
2014-1-22,10.4,7.3,4.6,9.9,6.8,4.2,98,98,98,30.03,29.91,7,2,0,0.00
2014-1-23,15.3,10.7,8.1,14.8,10.3,7.6,98,98,98,30.10,29.92,5,2,0,0.00
2014-1-24,17.6,10.0,0.9,17.1,9.5,0.4,98,98,98,30.27,29.51,23,8,0,0.00
2014-1-25,26.6,19.9,10.9,26.1,19.4,10.5,98,98,98,29.51,29.09,19,9,0,0.00
2014-1-26,28.2,13.1,2.8,27.7,12.7,2.4,98,98,98,29.65,29.29,15,5,0,0.00
2014-1-27,28.9,15.6,3.6,28.4,15.2,3.1,98,98,98,30.05,29.18,26,11,0,0.01
2014-1-28,9.1,3.8,-3.8,8.7,3.4,-4.2,98,98,98,30.23,30.04,18,8,0,0.00
2014-1-29,15.3,9.5,1.9,14.8,9.0,1.5,98,98,98,30.10,29.92,24,8,0,0.00
2014-1-30,31.1,21.5,11.3,30.6,21.0,10.8,98,98,98,30.12,29.66,23,6,0,0.00
2014-1-31,36.9,32.5,28.8,36.3,32.0,28.3,98,98,98,30.04,29.74,20,5,0,0.00